Terminal Aerodrome Forecast
Issued by NWS Jackson, MS

Home | Current Version | Previous Version | Text Only | Print | Product List | Glossary On
Versions: 1 2 3 4 5 6 7 8 9 10 11 12 13 14 15 16 17 18 19 20
629
FTUS44 KJAN 291729
TAFMEI
TAF
KMEI 291729Z 2918/3018 26009G17KT P6SM VCTS SCT040CB
     FM300000 20004KT P6SM SCT250
     FM301100 19002KT 2SM BR SCT250
     FM301400 29004KT 6SM HZ SCT250=

USA.gov is the U.S. government's official web portal to all federal, state and local government web resources and services.